Palomar Mountain, California
Current Conditions -  °F | °C
As of 8:53 AM on Friday 24 Oct 2014 (Local Time) from KRNM Reporting Station
Clear Clear  
Wind Chill: 71°   Ceiling: Unl
Heat Index: 71°   Visibility: 10mi
Dew Point: 39°   Wind: 0mph
Humidity: 31%   Direction: NA
Pressure: 30.04"   Gusts: NA
Location:  33.33°N, 116.84°W
Report Text: KRNM 241553Z 00000KT 10SM CLR 22/04 A3004 RMK AO2 SLP160 T02170039
Loading
Personal Weather Stations






























Interactive Weather Map
Tropical Storm Tracking
New forecast layout! Learn more

10-Day Weather Forecast

Advertisements
Track Severe Weather on mobile